Time;durP1;ratioP1;P1;durP2;ratioP2;P2;SDS_P1;SDS_P2;PMS_P1;PMS_P2;Temp;Humidity;BMP_temperature;BMP_pressure;BME280_temperature;BME280_humidity;BME280_pressure;Samples;Min_cycle;Max_cycle;Signal;HPM_P1;HPM_P2
2022/08/11 00:01:35;;;;;;;4.28;0.50;;;;;;;13.38;100.00;101629.16;5011257;28;20495;-51
2022/08/11 00:04:03;;;;;;;0.38;0.32;;;;;;;13.27;100.00;101638.44;5016506;28;20621;-50
2022/08/11 00:06:32;;;;;;;2.58;0.50;;;;;;;13.23;100.00;101641.59;5015472;28;20034;-48
2022/08/11 00:09:00;;;;;;;0.40;0.40;;;;;;;13.18;100.00;101642.13;5012703;28;20434;-48
2022/08/11 00:11:55;;;;;;;3.22;0.52;;;;;;;13.16;100.00;101641.47;5019770;28;20285;-50
2022/08/11 00:14:25;;;;;;;5.13;0.47;;;;;;;13.14;100.00;101640.84;5014103;28;20030;-50
2022/08/11 00:16:55;;;;;;;0.50;0.22;;;;;;;13.09;100.00;101637.91;5016508;28;20084;-49
2022/08/11 00:19:27;;;;;;;1.80;0.60;;;;;;;13.00;100.00;101641.63;5017080;28;20030;-55
2022/08/11 00:21:54;;;;;;;0.55;0.40;;;;;;;12.94;100.00;101643.16;5023874;28;20499;-53
2022/08/11 00:24:22;;;;;;;2.30;0.28;;;;;;;12.94;100.00;101643.16;5013326;28;20029;-50
2022/08/11 00:26:52;;;;;;;1.23;0.52;;;;;;;12.87;100.00;101640.38;5019524;28;20108;-48
2022/08/11 00:29:19;;;;;;;0.40;0.30;;;;;;;12.80;100.00;101639.44;5018361;28;20055;-50
2022/08/11 00:31:51;;;;;;;2.35;0.40;;;;;;;12.74;100.00;101639.31;5022068;28;20583;-55
2022/08/11 00:34:21;;;;;;;0.73;0.52;;;;;;;12.69;100.00;101645.16;5024893;28;20057;-51
2022/08/11 00:36:51;;;;;;;0.57;0.57;;;;;;;12.63;100.00;101643.22;5019802;28;20034;-52
2022/08/11 00:39:20;;;;;;;2.58;0.30;;;;;;;12.61;100.00;101646.03;5025433;28;20037;-50
2022/08/11 00:42:12;;;;;;;0.90;0.30;;;;;;;12.48;100.00;101642.31;5019546;28;20045;-50
2022/08/11 00:44:56;;;;;;;0.30;0.30;;;;;;;12.43;100.00;101640.16;5018033;28;20105;-50
2022/08/11 00:47:30;;;;;;;0.45;0.38;;;;;;;12.41;100.00;101639.50;5021012;28;20038;-50
2022/08/11 00:50:20;;;;;;;0.60;0.60;;;;;;;12.41;100.00;101635.00;5018889;28;20037;-50
2022/08/11 00:53:04;;;;;;;0.65;0.40;;;;;;;12.32;100.00;101633.41;5019447;28;20025;-51
2022/08/11 00:55:47;;;;;;;0.63;0.50;;;;;;;12.23;100.00;101629.13;5019305;28;20032;-52
2022/08/11 00:58:34;;;;;;;1.48;0.50;;;;;;;12.17;100.00;101629.84;5020990;28;20070;-54
2022/08/11 01:01:19;;;;;;;0.95;0.70;;;;;;;12.07;100.00;101629.22;5018174;28;20393;-52
2022/08/11 01:04:23;;;;;;;1.55;0.63;;;;;;;12.03;100.00;101628.75;5024491;28;20042;-51
2022/08/11 01:07:07;;;;;;;2.80;0.30;;;;;;;11.96;100.00;101628.59;5023954;28;20072;-49
2022/08/11 01:09:45;;;;;;;2.20;0.20;;;;;;;11.93;100.00;101638.75;5023888;28;20029;-51
2022/08/11 01:12:38;;;;;;;2.50;0.80;;;;;;;11.91;100.00;101636.25;5014182;28;20045;-51
2022/08/11 01:15:32;;;;;;;1.48;0.40;;;;;;;11.92;100.00;101629.91;5020227;28;20467;-51
2022/08/11 01:18:09;;;;;;;3.00;0.75;;;;;;;11.91;100.00;101632.78;5019243;28;20038;-50
2022/08/11 01:20:57;;;;;;;1.27;0.47;;;;;;;11.88;100.00;101630.47;5014202;28;20030;-53
2022/08/11 01:23:56;;;;;;;0.57;0.57;;;;;;;11.84;100.00;101629.94;5009271;28;20053;-52
2022/08/11 01:26:40;;;;;;;1.75;0.40;;;;;;;11.86;100.00;101627.97;5021432;28;20065;-51
2022/08/11 01:29:28;;;;;;;1.02;0.60;;;;;;;11.88;100.00;101622.50;5027864;28;20504;-50
2022/08/11 01:32:48;;;;;;;0.63;0.30;;;;;;;11.85;100.00;101620.97;5012152;28;20076;-50
2022/08/11 01:35:16;;;;;;;6.32;0.80;;;;;;;11.78;100.00;101628.78;5023355;28;20152;-50
2022/08/11 01:38:11;;;;;;;0.55;0.32;;;;;;;11.75;100.00;101617.69;5018400;28;20049;-51
2022/08/11 01:41:19;;;;;;;0.35;0.25;;;;;;;11.70;100.00;101612.88;5023508;28;20021;-49
2022/08/11 01:47:49;;;;;;;3.47;0.30;;;;;;;11.63;100.00;101613.72;5015054;28;20480;-50
2022/08/11 01:50:08;;;;;;;3.00;0.40;;;;;;;11.55;100.00;101620.72;5018620;28;20045;-50
2022/08/11 01:53:01;;;;;;;2.28;0.60;;;;;;;11.51;100.00;101622.06;5013727;28;20494;-50
2022/08/11 01:55:31;;;;;;;1.80;1.08;;;;;;;11.51;100.00;101626.53;5013855;28;20045;-49
2022/08/11 01:58:12;;;;;;;2.55;0.68;;;;;;;11.44;100.00;101626.38;5021038;28;20033;-50
2022/08/11 02:01:13;;;;;;;5.47;0.50;;;;;;;11.42;100.00;101623.06;5023788;28;20036;-51
2022/08/11 02:03:44;;;;;;;7.85;2.15;;;;;;;11.41;100.00;101626.72;5017611;28;20132;-50
2022/08/11 02:09:27;;;;;;;2.88;0.30;;;;;;;11.36;100.00;101634.38;5025734;28;20044;-53
2022/08/11 02:12:02;;;;;;;1.02;0.30;;;;;;;11.30;100.00;101633.19;5026397;28;20065;-48
2022/08/11 02:14:36;;;;;;;0.35;0.35;;;;;;;11.27;100.00;101632.72;5025119;28;20037;-51
2022/08/11 02:17:21;;;;;;;0.40;0.35;;;;;;;11.25;100.00;101634.69;5014417;28;20025;-52
2022/08/11 02:25:50;;;;;;;1.08;0.40;;;;;;;11.09;100.00;101631.03;5028812;28;20548;-55
2022/08/11 02:28:15;;;;;;;1.30;0.32;;;;;;;11.04;100.00;101630.72;5022559;28;20037;-55
2022/08/11 02:33:21;;;;;;;2.40;0.40;;;;;;;10.97;100.00;101629.75;5025099;28;20101;-53
2022/08/11 02:33:42;;;;;;;0.40;0.38;;;;;;;10.90;100.00;101626.09;5021514;28;20593;-52
2022/08/11 02:36:42;;;;;;;2.20;0.85;;;;;;;10.86;100.00;101632.69;5022461;28;20040;-52
2022/08/11 02:39:11;;;;;;;0.60;0.60;;;;;;;10.81;100.00;101630.53;5026532;28;20339;-49
2022/08/11 02:44:35;;;;;;;1.70;0.55;;;;;;;10.76;100.00;101632.03;5022095;28;20036;-52
2022/08/11 02:47:16;;;;;;;1.42;0.40;;;;;;;10.77;100.00;101629.22;5020425;28;20026;-51
2022/08/11 02:49:55;;;;;;;1.38;0.85;;;;;;;10.77;100.00;101623.91;5026558;28;20486;-49
2022/08/11 02:52:39;;;;;;;3.85;0.60;;;;;;;10.76;100.00;101632.03;5014284;28;20029;-51
2022/08/11 02:55:19;;;;;;;0.75;0.50;;;;;;;10.72;100.00;101626.22;5019849;28;20033;-52
2022/08/11 02:58:02;;;;;;;1.83;0.43;;;;;;;10.68;100.00;101628.38;5023427;28;20029;-50
2022/08/11 03:00:41;;;;;;;1.13;0.40;;;;;;;10.64;100.00;101629.69;5019743;28;20029;-48
2022/08/11 03:03:16;;;;;;;0.32;0.32;;;;;;;10.62;100.00;101628.22;5028402;28;20040;-50
2022/08/11 03:06:00;;;;;;;2.53;0.50;;;;;;;10.57;100.00;101626.03;5022008;28;20083;-50
2022/08/11 03:08:29;;;;;;;1.00;0.50;;;;;;;10.53;100.00;101623.88;5015509;28;20045;-49
2022/08/11 03:16:57;;;;;;;8.15;1.30;;;;;;;10.36;100.00;101618.53;5016629;28;20078;-51
2022/08/11 03:20:02;;;;;;;1.65;0.57;;;;;;;10.34;100.00;101619.69;5019875;28;20034;-53
2022/08/11 03:22:37;;;;;;;1.10;0.40;;;;;;;10.30;100.00;101626.28;5014402;28;20100;-55
2022/08/11 03:25:17;;;;;;;0.43;0.43;;;;;;;10.27;100.00;101624.75;5018314;28;20040;-50
2022/08/11 03:28:05;;;;;;;1.13;0.50;;;;;;;10.25;100.00;101624.94;5017916;28;20443;-54
2022/08/11 03:30:45;;;;;;;2.97;1.05;;;;;;;10.21;100.00;101617.47;5014804;28;20029;-52
2022/08/11 03:36:35;;;;;;;1.65;0.32;;;;;;;10.12;100.00;101618.41;5023323;28;20505;-51
2022/08/11 03:39:04;;;;;;;0.47;0.47;;;;;;;10.11;100.00;101614.94;5022708;28;20052;-50
2022/08/11 03:42:05;;;;;;;0.90;0.40;;;;;;;10.11;100.00;101611.47;5019942;28;20044;-53
2022/08/11 03:44:59;;;;;;;1.80;0.70;;;;;;;10.06;100.00;101614.59;5020371;28;20038;-49
2022/08/11 03:47:38;;;;;;;0.35;0.30;;;;;;;9.99;100.00;101610.91;5024455;28;20041;-51
2022/08/11 03:50:23;;;;;;;2.67;0.17;;;;;;;9.95;100.00;101613.06;5028510;28;20068;-48
2022/08/11 03:53:26;;;;;;;3.08;0.40;;;;;;;9.92;100.00;101599.31;5018197;28;20378;-48
2022/08/11 03:56:04;;;;;;;0.82;0.30;;;;;;;9.91;100.00;101603.75;5020199;28;20458;-51
2022/08/11 03:58:35;;;;;;;0.47;0.45;;;;;;;9.91;100.00;101597.63;5019278;28;20037;-50
2022/08/11 04:01:25;;;;;;;0.45;0.45;;;;;;;9.91;100.00;101593.16;5022941;28;20033;-49
2022/08/11 04:04:23;;;;;;;1.17;0.70;;;;;;;9.91;100.00;101593.16;5021669;28;20085;-52
2022/08/11 04:07:00;;;;;;;0.93;0.40;;;;;;;9.87;100.00;101591.00;5028904;28;20116;-50
2022/08/11 04:10:13;;;;;;;1.63;0.10;;;;;;;9.81;100.00;101585.38;5019747;28;20083;-47
2022/08/11 04:13:05;;;;;;;1.65;0.52;;;;;;;9.76;100.00;101592.94;5019992;28;20384;-51
2022/08/11 04:18:34;;;;;;;0.85;0.43;;;;;;;9.74;100.00;101584.31;5022219;28;20537;-53
2022/08/11 04:21:36;;;;;;;2.28;0.45;;;;;;;9.75;100.00;101585.16;5025201;28;20052;-48
2022/08/11 04:24:08;;;;;;;0.50;0.50;;;;;;;9.71;100.00;101589.94;5016027;28;20109;-51
2022/08/11 04:27:12;;;;;;;1.38;0.30;;;;;;;9.69;100.00;101583.16;5015151;28;20065;-50
2022/08/11 04:30:02;;;;;;;3.22;0.35;;;;;;;9.70;100.00;101585.63;5020124;28;20034;-50
2022/08/11 04:32:39;;;;;;;2.22;0.50;;;;;;;9.74;100.00;101591.44;5029392;28;20525;-50
2022/08/11 04:35:17;;;;;;;0.80;0.60;;;;;;;9.75;100.00;101591.28;5024151;28;20045;-50
2022/08/11 04:37:54;;;;;;;0.65;0.43;;;;;;;9.76;100.00;101598.25;5022160;28;20379;-50
2022/08/11 04:40:32;;;;;;;0.68;0.28;;;;;;;9.76;100.00;101594.78;5019222;28;20025;-50
2022/08/11 04:43:21;;;;;;;0.63;0.60;;;;;;;9.74;100.00;101589.63;5027364;28;20449;-52
2022/08/11 04:46:13;;;;;;;3.25;0.98;;;;;;;9.68;100.00;101586.75;5023613;28;20033;-48
2022/08/11 05:01:41;;;;;;;0.28;0.20;;;;;;;9.71;100.00;101597.06;5022784;28;20083;-49
2022/08/11 05:07:10;;;;;;;0.80;0.60;;;;;;;9.65;100.00;101595.03;5027488;28;20043;-52
2022/08/11 05:09:57;;;;;;;2.13;1.02;;;;;;;9.60;100.00;101598.16;5017023;28;20060;-51
2022/08/11 05:12:33;;;;;;;1.67;0.60;;;;;;;9.60;100.00;101596.34;5017849;28;20061;-48
2022/08/11 05:35:49;;;;;;;2.08;0.90;;;;;;;9.88;100.00;101619.16;5017038;28;20423;-51
2022/08/11 05:57:48;;;;;;;1.67;0.40;;;;;;;10.34;100.00;101625.81;5018292;28;20616;-52
2022/08/11 06:00:14;;;;;;;3.63;0.40;;;;;;;10.40;100.00;101621.69;5022022;28;20242;-52
2022/08/11 06:02:42;;;;;;;1.25;1.10;;;;;;;10.46;100.00;101627.19;5028685;28;20479;-53
2022/08/11 06:05:08;;;;;;;2.05;1.02;;;;;;;10.55;100.00;101625.38;5027291;28;20022;-55
2022/08/11 06:07:34;;;;;;;0.70;0.50;;;;;;;10.64;100.00;101627.06;5026936;28;20421;-51
2022/08/11 06:09:59;;;;;;;3.10;0.82;;;;;;;10.72;100.00;101622.75;5022410;28;20175;-53
2022/08/11 06:12:32;;;;;;;2.10;0.75;;;;;;;10.83;100.00;101623.25;5023716;28;20489;-49
2022/08/11 06:15:02;;;;;;;0.95;0.70;;;;;;;10.97;100.00;101624.44;5024956;28;20029;-51
2022/08/11 06:17:32;;;;;;;3.22;0.80;;;;;;;11.09;100.00;101620.44;5034579;28;20434;-50
2022/08/11 06:20:00;;;;;;;1.40;0.73;;;;;;;11.23;100.00;101621.59;5016333;28;20061;-52
2022/08/11 06:22:26;;;;;;;8.48;0.80;;;;;;;11.39;100.00;101618.09;5023267;28;20107;-52
2022/08/11 06:24:56;;;;;;;2.15;0.95;;;;;;;11.58;100.00;101617.72;5020715;28;20068;-49
2022/08/11 06:27:24;;;;;;;2.80;1.05;;;;;;;11.74;100.00;101611.50;5014981;28;20040;-55
2022/08/11 06:29:51;;;;;;;5.60;1.23;;;;;;;11.89;100.00;101603.69;5015931;28;20030;-49
2022/08/11 06:32:18;;;;;;;3.55;0.82;;;;;;;12.03;100.00;101602.16;5022974;28;20029;-53
2022/08/11 06:34:53;;;;;;;3.15;1.90;;;;;;;12.25;100.00;101602.38;5018013;28;20030;-52
2022/08/11 06:37:34;;;;;;;5.90;1.98;;;;;;;12.50;100.00;101601.22;5020117;28;20528;-50
2022/08/11 06:40:04;;;;;;;;;;;;;;;12.66;100.00;101608.28;5027058;28;20029;-53
2022/08/11 06:42:52;;;;;;;2.42;0.77;;;;;;;12.77;100.00;101613.16;5024760;28;19929;-48
2022/08/11 06:45:34;;;;;;;1.83;1.10;;;;;;;12.87;100.00;101611.09;5023414;28;20033;-54
2022/08/11 06:48:01;;;;;;;0.77;0.75;;;;;;;13.00;100.00;101607.84;5025187;28;20127;-52
2022/08/11 06:53:16;;;;;;;4.28;1.15;;;;;;;13.41;100.00;101602.16;5018711;28;20052;-50
2022/08/11 07:01:49;;;;;;;2.95;1.08;;;;;;;14.11;100.00;101586.69;5017547;28;20504;-50
2022/08/11 07:04:30;;;;;;;0.77;0.65;;;;;;;14.27;100.00;101581.09;5021577;28;20044;-50
2022/08/11 07:15:45;;;;;;;2.60;1.33;;;;;;;15.67;100.00;101575.09;5021324;28;20048;-49
2022/08/11 07:30:02;;;;;;;3.40;1.10;;;;;;;17.97;100.00;101545.34;5023721;28;20032;-51
2022/08/11 07:32:32;;;;;;;1.80;1.27;;;;;;;18.28;100.00;101550.72;5017929;28;20036;-55
2022/08/11 07:35:12;;;;;;;2.88;1.65;;;;;;;18.71;100.00;101544.59;5017130;28;20041;-52
2022/08/11 07:37:41;;;;;;;1.23;1.23;;;;;;;18.95;100.00;101545.69;5024418;28;20029;-53
2022/08/11 07:40:08;;;;;;;5.25;1.25;;;;;;;19.15;100.00;101537.44;5019510;28;20030;-50
2022/08/11 07:42:37;;;;;;;4.63;1.30;;;;;;;19.33;100.00;101547.38;5020279;28;20033;-52
2022/08/11 07:53:29;;;;;;;0.80;0.80;;;;;;;19.96;100.00;101542.75;5023192;28;20120;-53
2022/08/11 07:55:56;;;;;;;1.65;1.13;;;;;;;20.16;100.00;101535.22;5017410;28;20120;-54
2022/08/11 08:17:55;;;;;;;14.70;0.93;;;;;;;21.63;100.00;101500.31;5016526;28;20060;-54
2022/08/11 08:20:24;;;;;;;0.82;0.57;;;;;;;21.76;100.00;101495.50;5015559;28;20030;-53
2022/08/11 08:22:55;;;;;;;1.70;0.70;;;;;;;21.95;100.00;101496.09;5018338;28;20444;-55
2022/08/11 08:25:22;;;;;;;16.77;1.83;;;;;;;22.13;100.00;101494.25;5024919;28;20295;-51
2022/08/11 08:27:50;;;;;;;3.28;0.70;;;;;;;22.30;100.00;101492.41;5016851;28;20112;-51
2022/08/11 08:33:01;;;;;;;2.28;1.02;;;;;;;22.64;100.00;101493.25;5017844;28;20200;-56
2022/08/11 08:35:29;;;;;;;2.50;0.38;;;;;;;22.80;100.00;101488.06;5022707;28;20037;-51
2022/08/11 08:37:55;;;;;;;3.42;0.60;;;;;;;22.84;100.00;101481.88;5022290;28;20029;-55
2022/08/11 08:40:21;;;;;;;2.42;0.95;;;;;;;22.97;100.00;101475.34;5025355;28;20116;-56
2022/08/11 08:42:54;;;;;;;1.17;0.55;;;;;;;23.14;100.00;101475.31;5020042;28;20038;-57
2022/08/11 08:45:22;;;;;;;1.30;0.90;;;;;;;23.26;100.00;101477.91;5025560;28;20086;-56
2022/08/11 08:47:51;;;;;;;0.63;0.17;;;;;;;23.37;100.00;101468.00;5020352;28;20032;-57
2022/08/11 08:50:21;;;;;;;1.92;0.60;;;;;;;23.50;100.00;101471.13;5027659;28;20382;-57
2022/08/11 08:52:53;;;;;;;6.50;0.95;;;;;;;23.62;100.00;101465.59;5023433;28;20053;-57
2022/08/11 08:55:20;;;;;;;2.70;0.40;;;;;;;23.84;100.00;101472.88;5020364;28;20179;-54
2022/08/11 08:57:48;;;;;;;2.58;0.30;;;;;;;23.90;100.00;101472.66;5018439;28;20037;-53
2022/08/11 09:00:15;;;;;;;0.75;0.40;;;;;;;24.04;100.00;101467.66;5023293;28;20055;-57
2022/08/11 09:02:42;;;;;;;4.50;0.75;;;;;;;24.21;100.00;101458.56;5027501;28;20072;-57
2022/08/11 09:05:08;;;;;;;0.28;0.13;;;;;;;24.35;100.00;101451.66;5025258;28;20049;-54
2022/08/11 09:07:34;;;;;;;0.70;0.60;;;;;;;24.56;100.00;101464.28;5011016;28;20029;-53
2022/08/11 09:10:01;;;;;;;6.95;0.65;;;;;;;24.64;100.00;101456.75;5027346;28;20040;-56
2022/08/11 09:12:29;;;;;;;3.72;0.40;;;;;;;24.75;100.00;101455.72;5026444;28;20057;-56
2022/08/11 09:14:59;;;;;;;1.38;0.25;;;;;;;24.83;100.00;101455.22;5021826;28;20175;-52
2022/08/11 09:17:27;;;;;;;3.72;0.30;;;;;;;24.87;100.00;101452.81;5023975;28;20504;-56
2022/08/11 09:19:59;;;;;;;2.05;0.30;;;;;;;25.07;100.00;101449.38;5018055;28;20076;-56
2022/08/11 09:28:00;;;;;;;1.50;0.30;;;;;;;25.47;100.00;101443.31;5011962;28;20503;-53
2022/08/11 09:30:26;;;;;;;0.38;0.38;;;;;;;25.51;100.00;101449.84;5025970;28;20041;-55
2022/08/11 09:33:00;;;;;;;1.88;0.35;;;;;;;25.79;100.00;101445.84;5024909;28;20501;-57
2022/08/11 09:35:27;;;;;;;2.25;0.20;;;;;;;25.99;100.00;101444.25;5025293;28;20103;-53
2022/08/11 09:40:44;;;;;;;0.73;0.20;;;;;;;26.31;100.00;101443.97;5028220;28;20036;-55
2022/08/11 09:46:23;;;;;;;1.38;0.10;;;;;;;26.59;100.00;101445.34;5044946;28;20033;-53
2022/08/11 09:48:52;;;;;;;2.42;0.30;;;;;;;26.80;100.00;101435.22;5044732;28;20037;-57
2022/08/11 09:51:20;;;;;;;1.20;0.20;;;;;;;26.97;100.00;101434.84;5025889;28;20053;-57
2022/08/11 09:53:46;;;;;;;1.30;0.30;;;;;;;27.04;100.00;101424.50;5016217;28;20037;-53
2022/08/11 09:59:03;;;;;;;1.10;0.30;;;;;;;27.15;100.00;101426.06;5021353;28;20039;-53
2022/08/11 10:01:53;;;;;;;6.13;1.15;;;;;;;27.16;100.00;101424.19;5018430;28;20087;-51
2022/08/11 10:04:31;;;;;;;1.20;0.20;;;;;;;27.23;100.00;101419.25;5032741;28;20057;-53
2022/08/11 10:07:00;;;;;;;0.13;0.13;;;;;;;27.32;100.00;101419.50;5027738;28;20314;-54
2022/08/11 10:09:47;;;;;;;0.45;0.20;;;;;;;27.59;100.00;101408.97;5022564;28;20034;-58
2022/08/11 10:12:23;;;;;;;1.45;0.40;;;;;;;27.63;98.39;101410.03;5017422;28;20046;-56
2022/08/11 10:18:40;;;;;;;5.28;0.68;;;;;;;27.86;93.31;101413.16;5021139;28;20120;-56
2022/08/11 10:20:33;;;;;;;0.73;0.35;;;;;;;27.97;94.14;101413.91;5021386;28;20471;-55
2022/08/11 10:28:30;;;;;;;0.90;0.35;;;;;;;28.38;89.63;101408.06;5022193;28;20068;-56
2022/08/11 10:33:59;;;;;;;2.58;0.50;;;;;;;28.41;85.02;101402.84;5026264;28;20045;-53
2022/08/11 10:36:30;;;;;;;0.60;0.35;;;;;;;28.49;83.59;101401.44;5027332;28;20032;-56
2022/08/11 10:38:57;;;;;;;2.97;0.55;;;;;;;28.64;83.21;101395.00;5024956;28;20431;-56
2022/08/11 10:44:09;;;;;;;0.90;0.43;;;;;;;29.07;79.28;101393.13;5016110;28;20045;-53
2022/08/11 10:49:21;;;;;;;2.60;0.30;;;;;;;29.03;80.64;101386.59;5011658;28;20411;-54
2022/08/11 11:00:05;;;;;;;1.77;0.65;;;;;;;29.62;76.39;101384.41;5016303;28;20130;-52
2022/08/11 11:02:33;;;;;;;0.70;0.22;;;;;;;29.62;76.05;101383.59;5015341;28;20033;-58
2022/08/11 11:05:08;;;;;;;2.78;0.52;;;;;;;29.81;73.35;101386.31;5012255;28;20029;-52
2022/08/11 11:08:51;;;;;;;0.90;0.40;;;;;;;29.90;70.65;101382.59;5018355;28;20047;-53
2022/08/11 11:10:52;;;;;;;1.15;0.20;;;;;;;30.00;71.49;101374.22;5024168;28;20025;-54
2022/08/11 11:18:49;;;;;;;1.38;0.60;;;;;;;30.36;69.91;101383.69;5023179;28;20147;-56
2022/08/11 11:21:19;;;;;;;4.97;1.42;;;;;;;30.28;65.79;101373.47;5018212;28;20171;-55
2022/08/11 11:24:11;;;;;;;2.03;0.73;;;;;;;29.96;63.04;101370.44;5017388;28;20036;-53
2022/08/11 11:26:39;;;;;;;7.45;0.70;;;;;;;29.97;66.54;101377.56;5020773;28;20034;-53
2022/08/11 11:29:32;;;;;;;1.63;0.88;;;;;;;30.23;66.52;101363.44;5012585;28;20025;-50
2022/08/11 11:32:20;;;;;;;0.80;0.20;;;;;;;30.68;65.16;101368.31;5022384;28;20431;-53
2022/08/11 11:35:03;;;;;;;0.47;0.30;;;;;;;30.80;64.53;101368.63;5027285;28;20410;-52
2022/08/11 11:37:34;;;;;;;1.15;0.38;;;;;;;30.89;62.83;101364.06;5014445;28;20497;-54
2022/08/11 11:40:00;;;;;;;;;;;;;;;30.97;59.98;101359.78;5023275;28;20087;-53
2022/08/11 11:42:27;;;;;;;0.55;0.20;;;;;;;31.18;62.79;101352.72;5025560;28;20301;-49
2022/08/11 11:44:53;;;;;;;0.60;0.30;;;;;;;31.42;61.48;101351.66;5015946;28;20375;-51
2022/08/11 11:47:19;;;;;;;0.25;0.17;;;;;;;31.42;59.98;101349.72;5022773;28;20029;-56
2022/08/11 11:49:47;;;;;;;7.15;0.63;;;;;;;31.45;60.10;101349.09;5023747;28;20036;-56
2022/08/11 11:52:18;;;;;;;1.80;0.70;;;;;;;31.60;59.61;101339.72;5016970;28;20156;-51
2022/08/11 11:54:49;;;;;;;0.38;0.25;;;;;;;31.61;60.02;101338.56;5012220;28;20030;-56
2022/08/11 12:02:50;;;;;;;0.77;0.20;;;;;;;31.86;58.46;101344.53;5024907;28;20402;-51
2022/08/11 12:05:16;;;;;;;2.92;0.52;;;;;;;31.99;57.33;101340.94;5012511;28;20030;-53
2022/08/11 12:10:27;;;;;;;1.65;0.35;;;;;;;31.84;57.55;101333.88;5023389;28;20552;-51
2022/08/11 12:15:37;;;;;;;0.68;0.35;;;;;;;32.20;57.38;101334.88;5014353;28;20040;-54
2022/08/11 12:18:04;;;;;;;2.15;0.95;;;;;;;32.19;56.20;101331.31;5027737;28;20021;-51
2022/08/11 12:20:31;;;;;;;0.77;0.38;;;;;;;32.21;55.94;101323.56;5017897;28;20026;-55
2022/08/11 12:28:28;;;;;;;2.80;0.70;;;;;;;32.44;53.77;101307.84;5011894;28;20450;-55
2022/08/11 12:30:54;;;;;;;1.08;0.40;;;;;;;32.62;54.49;101310.66;5017648;28;20079;-57
2022/08/11 12:33:20;;;;;;;8.75;0.95;;;;;;;32.28;53.83;101301.97;5021460;28;20038;-57
2022/08/11 12:35:51;;;;;;;0.75;0.40;;;;;;;32.31;54.20;101304.09;5016945;28;20038;-51
2022/08/11 12:38:20;;;;;;;0.30;0.30;;;;;;;32.59;53.13;101303.88;5014542;28;20080;-52
2022/08/11 12:46:20;;;;;;;0.95;0.55;;;;;;;32.83;52.01;101297.91;5025154;28;20044;-57
2022/08/11 12:52:00;;;;;;;1.00;0.32;;;;;;;33.07;51.11;101288.41;5014431;28;20497;-54
2022/08/11 12:54:48;;;;;;;0.40;0.30;;;;;;;33.06;50.72;101287.59;5028008;28;20121;-53
2022/08/11 13:05:41;;;;;;;0.57;0.30;;;;;;;33.56;48.09;101275.25;5019656;28;20584;-52
2022/08/11 13:08:07;;;;;;;1.23;0.40;;;;;;;32.88;48.03;101270.28;5024829;28;20033;-55
2022/08/11 13:13:21;;;;;;;0.22;0.22;;;;;;;33.22;48.01;101266.72;5017928;28;20052;-51
2022/08/11 13:15:48;;;;;;;3.20;0.20;;;;;;;33.64;46.75;101272.50;5019660;28;20040;-55
2022/08/11 13:18:21;;;;;;;2.75;0.50;;;;;;;33.62;47.03;101268.47;5027979;28;20026;-54
2022/08/11 13:20:54;;;;;;;2.13;0.40;;;;;;;33.53;46.08;101268.44;5016685;28;20033;-55
2022/08/11 13:23:22;;;;;;;2.38;0.22;;;;;;;33.00;46.12;101258.66;5023197;28;20033;-51
2022/08/11 13:25:49;;;;;;;0.47;0.20;;;;;;;33.08;47.03;101263.38;5026145;28;20029;-53
2022/08/11 13:28:18;;;;;;;0.70;0.43;;;;;;;33.47;47.11;101260.72;5018357;28;20399;-52
2022/08/11 13:33:29;;;;;;;0.28;0.20;;;;;;;34.05;45.62;101249.03;5023218;28;20083;-55
2022/08/11 13:35:55;;;;;;;0.55;0.30;;;;;;;34.29;45.27;101242.94;5019999;28;20022;-55
2022/08/11 13:38:23;;;;;;;0.28;0.15;;;;;;;34.32;44.16;101238.72;5020113;28;20032;-53
2022/08/11 13:40:50;;;;;;;1.40;0.50;;;;;;;34.23;43.85;101243.44;5014145;28;20053;-56
2022/08/11 13:43:19;;;;;;;0.60;0.20;;;;;;;33.86;44.06;101240.38;5020908;28;20036;-54
2022/08/11 13:45:46;;;;;;;0.00;0.00;;;;;;;33.86;43.80;101230.19;5024742;28;20025;-56
2022/08/11 13:48:12;;;;;;;1.50;0.20;;;;;;;34.00;44.48;101223.63;5024818;28;20120;-53
2022/08/11 13:53:24;;;;;;;0.80;0.65;;;;;;;33.98;44.52;101237.75;5020886;28;20100;-51
2022/08/11 13:55:50;;;;;;;0.40;0.40;;;;;;;34.19;42.54;101234.25;5023500;28;20028;-55
2022/08/11 13:58:16;;;;;;;1.85;0.28;;;;;;;34.11;42.04;101235.13;5028283;28;20423;-56
2022/08/11 14:00:48;;;;;;;4.68;0.38;;;;;;;34.20;41.28;101239.41;5023726;28;20030;-53
2022/08/11 14:03:15;;;;;;;0.45;0.10;;;;;;;34.29;42.10;101237.44;5015002;28;20112;-57
2022/08/11 14:05:50;;;;;;;0.98;0.50;;;;;;;34.28;42.04;101237.75;5020060;28;20152;-55
2022/08/11 14:08:19;;;;;;;0.32;0.32;;;;;;;34.21;41.73;101237.50;5020002;28;20124;-57
2022/08/11 14:13:36;;;;;;;0.20;0.20;;;;;;;34.25;41.52;101222.72;5020521;28;20399;-56
2022/08/11 14:13:37;;;;;;;0.25;0.10;;;;;;;33.85;41.38;101214.84;5020814;28;20451;-48
2022/08/11 14:16:09;;;;;;;0.60;0.30;;;;;;;33.99;40.96;101216.53;5018505;28;20030;-57
2022/08/11 14:18:41;;;;;;;1.45;0.95;;;;;;;33.87;41.75;101219.97;5013893;28;20436;-55
2022/08/11 14:23:58;;;;;;;0.65;0.30;;;;;;;34.18;40.10;101218.88;5016863;28;20048;-58
2022/08/11 14:26:27;;;;;;;1.17;0.20;;;;;;;33.98;40.53;101210.25;5018119;28;20030;-56
2022/08/11 14:29:03;;;;;;;1.25;0.30;;;;;;;33.91;39.81;101212.69;5014230;28;20809;-53
2022/08/11 14:31:32;;;;;;;1.50;0.88;;;;;;;33.92;40.69;101211.53;5009297;28;20037;-56
2022/08/11 14:34:02;;;;;;;2.75;0.20;;;;;;;33.75;39.27;101204.22;5018678;28;20095;-54
2022/08/11 14:36:34;;;;;;;2.30;0.28;;;;;;;33.42;41.13;101199.28;5024611;28;20063;-57
2022/08/11 14:39:11;;;;;;;2.65;0.40;;;;;;;33.75;42.27;101204.22;5020929;28;20025;-57
2022/08/11 14:47:13;;;;;;;0.80;0.50;;;;;;;34.08;41.18;101198.09;5016733;28;20040;-48
2022/08/11 14:49:40;;;;;;;0.63;0.35;;;;;;;33.75;40.91;101195.97;5024289;28;20107;-57
2022/08/11 14:52:15;;;;;;;1.75;0.10;;;;;;;33.88;41.15;101194.13;5011770;28;20053;-54
2022/08/11 14:57:29;;;;;;;0.55;0.20;;;;;;;33.19;40.98;101190.47;5021197;28;20143;-56
2022/08/11 14:59:58;;;;;;;1.45;0.43;;;;;;;33.45;41.06;101184.88;5014223;28;20463;-56
2022/08/11 15:05:08;;;;;;;0.32;0.30;;;;;;;33.82;40.58;101189.91;5018588;28;20512;-53
2022/08/11 15:07:36;;;;;;;3.08;0.30;;;;;;;33.74;39.93;101177.03;5016377;28;20026;-54
2022/08/11 15:10:05;;;;;;;1.80;0.10;;;;;;;33.34;40.74;101169.09;5026010;28;20053;-53
2022/08/11 15:12:32;;;;;;;1.20;0.30;;;;;;;33.36;41.15;101172.31;5014448;28;20148;-54
2022/08/11 15:17:44;;;;;;;1.67;0.40;;;;;;;33.70;40.94;101174.16;5021670;28;20099;-53
2022/08/11 15:25:48;;;;;;;1.20;0.85;;;;;;;33.82;40.70;101173.41;5018140;28;20047;-57
2022/08/11 15:39:37;;;;;;;0.57;0.43;;;;;;;33.80;39.87;101151.78;5021835;28;20050;-57
2022/08/11 15:47:56;;;;;;;0.90;0.20;;;;;;;33.65;38.84;101149.59;5021319;28;20103;-51
2022/08/11 15:50:28;;;;;;;0.20;0.20;;;;;;;33.64;39.57;101142.50;5027278;28;20058;-52
2022/08/11 15:53:10;;;;;;;1.33;0.32;;;;;;;33.84;39.15;101138.16;5020981;28;20455;-51
2022/08/11 15:55:37;;;;;;;0.73;0.30;;;;;;;33.79;38.75;101143.84;5022796;28;20100;-54
2022/08/11 16:06:35;;;;;;;24.15;0.70;;;;;;;33.41;38.95;101128.19;5029294;28;20060;-58
2022/08/11 16:09:04;;;;;;;2.45;0.38;;;;;;;33.34;38.48;101125.13;5018306;28;20037;-56
2022/08/11 16:11:33;;;;;;;3.83;0.45;;;;;;;33.43;38.85;101123.13;5026854;28;20041;-56
2022/08/11 16:16:51;;;;;;;0.40;0.10;;;;;;;33.32;38.37;101119.94;5017705;28;20445;-58
2022/08/11 16:19:18;;;;;;;0.63;0.20;;;;;;;33.49;38.34;101121.84;5021082;28;20032;-56
2022/08/11 16:21:49;;;;;;;0.52;0.50;;;;;;;33.65;38.27;101127.59;5025037;28;20083;-54
2022/08/11 16:24:16;;;;;;;0.52;0.32;;;;;;;33.41;38.38;101120.72;5023688;28;20080;-56
2022/08/11 16:26:42;;;;;;;1.38;0.43;;;;;;;33.29;37.97;101119.81;5018990;28;20386;-56
2022/08/11 16:29:09;;;;;;;1.13;0.77;;;;;;;33.38;38.68;101123.31;5024223;28;20029;-57
2022/08/11 16:31:36;;;;;;;2.55;0.30;;;;;;;33.54;38.85;101118.94;5027690;28;20030;-54
2022/08/11 16:34:03;;;;;;;0.82;0.40;;;;;;;33.53;38.09;101117.25;5029053;28;20352;-54
2022/08/11 16:39:17;;;;;;;0.43;0.17;;;;;;;33.77;38.49;101110.41;5023280;28;20035;-54